createdAt,value
2018-11-04T00:00:49.155Z,61.40
2018-11-04T00:02:50.944Z,61.50
2018-11-04T00:04:52.735Z,61.50
2018-11-04T00:06:54.540Z,61.50
2018-11-04T00:08:56.352Z,61.50
2018-11-04T00:10:58.169Z,61.50
2018-11-04T00:12:59.999Z,61.50
2018-11-04T00:15:01.784Z,61.50
2018-11-04T00:17:03.553Z,61.50
2018-11-04T00:19:05.404Z,62.40
2018-11-04T00:21:07.157Z,61.70
2018-11-04T00:23:08.976Z,61.50
2018-11-04T00:25:10.797Z,61.50
2018-11-04T00:27:12.601Z,61.30
2018-11-04T00:29:14.760Z,61.30
2018-11-04T00:31:16.570Z,61.30
2018-11-04T00:33:18.358Z,61.40
2018-11-04T00:35:20.174Z,61.30
2018-11-04T00:37:21.990Z,61.40
2018-11-04T00:39:23.757Z,61.50
2018-11-04T00:41:25.523Z,61.40
2018-11-04T00:43:27.346Z,61.50
2018-11-04T00:45:29.274Z,61.50
2018-11-04T00:47:30.950Z,61.50
2018-11-04T00:49:32.729Z,61.50
2018-11-04T00:51:34.503Z,61.40
2018-11-04T00:53:36.304Z,61.40
2018-11-04T00:55:38.121Z,61.50
2018-11-04T00:57:39.954Z,61.50
2018-11-04T00:59:41.738Z,61.50
2018-11-04T01:01:43.592Z,61.50
2018-11-04T01:03:45.397Z,61.50
2018-11-04T01:05:47.328Z,61.50
2018-11-04T01:07:49.128Z,61.50
2018-11-04T01:09:50.961Z,61.60
2018-11-04T01:11:52.788Z,61.60
2018-11-04T01:13:54.512Z,61.50
2018-11-04T01:15:56.372Z,61.50
2018-11-04T01:17:58.158Z,61.50
2018-11-04T01:19:59.942Z,61.50
2018-11-04T01:22:01.736Z,61.60
2018-11-04T01:24:03.515Z,61.50
2018-11-04T01:26:05.325Z,62.00
2018-11-04T01:28:07.139Z,61.50
2018-11-04T01:30:08.933Z,61.50
2018-11-04T01:32:10.733Z,61.60
2018-11-04T01:34:12.563Z,61.50
2018-11-04T01:36:14.386Z,61.40
2018-11-04T01:38:16.213Z,61.20
2018-11-04T01:40:17.979Z,61.20
2018-11-04T01:42:19.767Z,60.90
2018-11-04T01:44:21.597Z,60.60
2018-11-04T01:46:23.397Z,60.50
2018-11-04T01:48:25.172Z,60.20
2018-11-04T01:50:26.957Z,60.10
2018-11-04T01:52:28.774Z,60.00
2018-11-04T01:54:30.568Z,60.00
2018-11-04T01:56:32.397Z,60.00
2018-11-04T01:58:34.171Z,59.90
2018-11-04T02:00:35.981Z,59.90
2018-11-04T02:02:37.777Z,59.80
2018-11-04T02:04:39.607Z,59.90
2018-11-04T02:06:41.372Z,60.30
2018-11-04T02:08:43.161Z,59.90
2018-11-04T02:10:45.002Z,59.90
2018-11-04T02:12:46.779Z,59.90
2018-11-04T02:14:48.561Z,60.00
2018-11-04T02:16:50.365Z,60.00
2018-11-04T02:18:52.151Z,60.00
2018-11-04T02:20:53.955Z,60.00
2018-11-04T02:22:55.775Z,60.00
2018-11-04T02:24:57.584Z,60.00
2018-11-04T02:26:59.362Z,60.00
2018-11-04T02:29:01.179Z,60.00
2018-11-04T02:31:02.916Z,60.10
2018-11-04T02:33:04.736Z,60.20
2018-11-04T02:35:06.516Z,60.20
2018-11-04T02:37:08.297Z,60.20
2018-11-04T02:39:10.089Z,60.40
2018-11-04T02:41:11.871Z,60.40
2018-11-04T02:43:13.653Z,60.40
2018-11-04T02:45:15.496Z,60.40
2018-11-04T02:47:17.320Z,60.30
2018-11-04T02:49:19.106Z,60.40
2018-11-04T02:51:20.887Z,60.30
2018-11-04T02:53:22.678Z,60.40
2018-11-04T02:55:24.475Z,60.40
2018-11-04T02:57:26.278Z,60.40
2018-11-04T02:59:28.061Z,60.40
2018-11-04T03:01:29.876Z,60.40
2018-11-04T03:03:31.710Z,60.50
2018-11-04T03:05:33.529Z,60.40
2018-11-04T03:07:35.345Z,60.40
2018-11-04T03:09:37.134Z,60.50
2018-11-04T03:11:38.939Z,61.40
2018-11-04T03:13:40.689Z,60.60
2018-11-04T03:15:42.472Z,60.60
2018-11-04T03:17:44.281Z,60.60
2018-11-04T03:19:46.092Z,60.70
2018-11-04T03:21:47.879Z,60.70
2018-11-04T03:23:49.646Z,60.80
2018-11-04T03:25:51.473Z,60.70
2018-11-04T03:27:53.265Z,60.70
2018-11-04T03:29:55.039Z,60.70
2018-11-04T03:31:56.831Z,60.70
2018-11-04T03:33:58.639Z,60.70
2018-11-04T03:36:00.461Z,60.70
2018-11-04T03:38:02.235Z,60.70
2018-11-04T03:40:04.057Z,60.70
2018-11-04T03:42:05.874Z,60.70
2018-11-04T03:44:07.656Z,60.70
2018-11-04T03:46:09.466Z,60.80
2018-11-04T03:48:11.265Z,60.80
2018-11-04T03:50:13.043Z,60.90
2018-11-04T03:52:14.854Z,60.70
2018-11-04T03:54:16.640Z,60.70
2018-11-04T03:56:18.453Z,60.80
2018-11-04T03:58:20.238Z,60.90
2018-11-04T04:00:22.029Z,60.90
2018-11-04T04:02:23.845Z,60.90
2018-11-04T04:04:25.629Z,60.70
2018-11-04T04:06:27.432Z,60.90
2018-11-04T04:08:29.248Z,60.90
2018-11-04T04:10:31.010Z,60.90
2018-11-04T04:12:32.796Z,60.90
2018-11-04T04:14:34.612Z,60.90
2018-11-04T04:16:36.400Z,60.90
2018-11-04T04:18:38.214Z,60.90
2018-11-04T04:20:40.014Z,60.80
2018-11-04T04:22:41.836Z,60.90
2018-11-04T04:24:43.632Z,60.90
2018-11-04T04:26:45.416Z,60.90
2018-11-04T04:28:47.236Z,60.80
2018-11-04T04:30:49.008Z,60.80
2018-11-04T04:32:50.842Z,60.90
2018-11-04T04:34:52.624Z,61.40
2018-11-04T04:36:54.398Z,60.70
2018-11-04T04:38:56.872Z,60.70
2018-11-04T04:40:58.656Z,60.50
2018-11-04T04:43:00.469Z,60.60
2018-11-04T04:45:02.250Z,60.50
2018-11-04T04:47:04.060Z,60.50
2018-11-04T04:49:05.855Z,60.50
2018-11-04T04:51:07.651Z,60.50
2018-11-04T04:53:09.429Z,60.50
2018-11-04T04:55:11.236Z,60.60
2018-11-04T04:57:13.029Z,60.80
2018-11-04T04:59:14.835Z,60.80
2018-11-04T05:01:16.624Z,61.50
2018-11-04T05:03:18.473Z,60.80
2018-11-04T05:05:20.298Z,60.90
2018-11-04T05:07:22.092Z,60.90
2018-11-04T05:09:23.845Z,60.90
2018-11-04T05:11:25.641Z,60.90
2018-11-04T05:13:27.429Z,60.80
2018-11-04T05:15:29.235Z,60.70
2018-11-04T05:17:31.006Z,60.60
2018-11-04T05:19:32.822Z,60.40
2018-11-04T05:21:34.597Z,60.50
2018-11-04T05:23:36.416Z,60.20
2018-11-04T05:25:38.245Z,60.10
2018-11-04T05:27:40.051Z,60.20
2018-11-04T05:29:41.833Z,60.10
2018-11-04T05:31:43.657Z,60.00
2018-11-04T05:33:45.445Z,59.90
2018-11-04T05:35:47.256Z,59.90
2018-11-04T05:37:49.075Z,59.80
2018-11-04T05:39:50.869Z,59.90
2018-11-04T05:41:53.763Z,59.80
2018-11-04T05:43:55.547Z,59.80
2018-11-04T05:45:57.335Z,59.80
2018-11-04T05:47:59.166Z,59.80
2018-11-04T05:50:00.952Z,59.70
2018-11-04T05:52:02.780Z,59.70
2018-11-04T05:54:04.708Z,59.70
2018-11-04T05:56:06.484Z,59.70
2018-11-04T05:58:08.258Z,59.90
2018-11-04T06:00:10.080Z,59.60
2018-11-04T06:02:11.900Z,59.60
2018-11-04T06:04:13.665Z,59.60
2018-11-04T06:06:15.473Z,59.90
2018-11-04T06:08:17.242Z,60.00
2018-11-04T06:10:19.054Z,59.80
2018-11-04T06:12:20.848Z,59.60
2018-11-04T06:14:22.688Z,59.60
2018-11-04T06:16:24.471Z,59.60
2018-11-04T06:18:26.253Z,60.40
2018-11-04T06:20:28.080Z,59.70
2018-11-04T06:22:29.932Z,59.80
2018-11-04T06:24:31.712Z,59.70
2018-11-04T06:26:33.524Z,59.70
2018-11-04T06:28:35.302Z,59.70
2018-11-04T06:30:37.083Z,59.90
2018-11-04T06:32:38.899Z,59.80
2018-11-04T06:34:40.752Z,59.70
2018-11-04T06:36:42.477Z,59.70
2018-11-04T06:38:44.312Z,59.70
2018-11-04T06:40:46.149Z,59.70
2018-11-04T06:42:47.925Z,59.60
2018-11-04T06:44:49.750Z,59.70
2018-11-04T06:46:51.607Z,59.70
2018-11-04T06:48:53.376Z,60.50
2018-11-04T06:50:55.195Z,59.60
2018-11-04T06:52:56.997Z,59.70
2018-11-04T06:54:58.825Z,59.70
2018-11-04T06:57:00.617Z,59.70
2018-11-04T06:59:02.431Z,59.70
2018-11-04T07:01:04.226Z,59.70
2018-11-04T07:03:06.051Z,60.40
2018-11-04T07:05:07.821Z,59.60
2018-11-04T07:07:09.599Z,59.60
2018-11-04T07:09:11.538Z,59.60
2018-11-04T07:11:13.223Z,59.60
2018-11-04T07:13:15.017Z,59.60
2018-11-04T07:15:16.835Z,59.60
2018-11-04T07:17:18.607Z,59.00
2018-11-04T07:19:20.449Z,59.50
2018-11-04T07:21:22.227Z,59.50
2018-11-04T07:23:24.025Z,59.50
2018-11-04T07:25:25.866Z,59.40
2018-11-04T07:27:27.918Z,59.60
2018-11-04T07:29:29.703Z,59.40
2018-11-04T07:31:31.563Z,59.40
2018-11-04T07:33:33.320Z,59.40
2018-11-04T07:35:35.135Z,59.40
2018-11-04T07:37:36.932Z,59.50
2018-11-04T07:39:38.769Z,59.50
2018-11-04T07:41:40.535Z,59.50
2018-11-04T07:43:42.311Z,59.50
2018-11-04T07:45:44.140Z,59.50
2018-11-04T07:47:45.915Z,59.50
2018-11-04T07:49:47.691Z,59.50
2018-11-04T07:51:49.512Z,59.50
2018-11-04T07:53:51.343Z,59.50
2018-11-04T07:55:53.121Z,59.50
2018-11-04T07:57:54.950Z,59.50
2018-11-04T07:59:56.729Z,59.50
2018-11-04T08:01:58.527Z,59.60
2018-11-04T08:04:00.331Z,59.50
2018-11-04T08:06:02.111Z,59.40
2018-11-04T08:08:03.929Z,59.40
2018-11-04T08:10:06.639Z,59.40
2018-11-04T08:12:08.407Z,59.70
2018-11-04T08:14:10.199Z,60.20
2018-11-04T08:16:12.009Z,59.50
2018-11-04T08:18:13.777Z,59.40
2018-11-04T08:20:15.595Z,59.40
2018-11-04T08:22:17.389Z,59.40
2018-11-04T08:24:19.191Z,59.40
2018-11-04T08:26:21.027Z,59.40
2018-11-04T08:28:22.836Z,59.40
2018-11-04T08:30:24.651Z,59.50
2018-11-04T08:32:26.439Z,59.50
2018-11-04T08:34:28.243Z,59.40
2018-11-04T08:36:30.033Z,59.40
2018-11-04T08:38:31.875Z,59.50
2018-11-04T08:40:33.651Z,59.50
2018-11-04T08:42:35.427Z,59.40
2018-11-04T08:44:37.226Z,59.40
2018-11-04T08:46:39.055Z,59.50
2018-11-04T08:48:40.881Z,59.50
2018-11-04T08:50:42.648Z,59.50
2018-11-04T08:52:44.501Z,59.80
2018-11-04T08:54:46.317Z,59.70
2018-11-04T08:56:48.101Z,59.50
2018-11-04T08:58:49.935Z,59.50
2018-11-04T09:00:51.711Z,59.50
2018-11-04T09:02:53.510Z,59.50
2018-11-04T09:04:55.325Z,59.60
2018-11-04T09:06:57.163Z,59.60
2018-11-04T09:08:58.952Z,59.60
2018-11-04T09:11:00.764Z,59.60
2018-11-04T09:13:02.552Z,60.30
2018-11-04T09:15:04.331Z,59.70
2018-11-04T09:17:06.159Z,59.70
2018-11-04T09:19:07.939Z,59.80
2018-11-04T09:21:09.740Z,60.20
2018-11-04T09:23:11.555Z,59.70
2018-11-04T09:25:13.364Z,59.70
2018-11-04T09:27:15.189Z,59.80
2018-11-04T09:29:17.082Z,59.80
2018-11-04T09:31:18.851Z,59.80
2018-11-04T09:33:20.718Z,60.00
2018-11-04T09:35:22.554Z,60.00
2018-11-04T09:37:24.313Z,59.80
2018-11-04T09:39:26.137Z,59.80
2018-11-04T09:41:27.935Z,59.80
2018-11-04T09:43:29.721Z,59.80
2018-11-04T09:45:31.559Z,59.80
2018-11-04T09:47:33.336Z,59.80
2018-11-04T09:49:35.124Z,59.80
2018-11-04T09:51:36.933Z,59.70
2018-11-04T09:53:38.721Z,58.90
2018-11-04T09:55:40.544Z,59.70
2018-11-04T09:57:42.349Z,59.50
2018-11-04T09:59:44.146Z,59.60
2018-11-04T10:01:46.019Z,59.60
2018-11-04T10:03:47.852Z,59.70
2018-11-04T10:05:49.649Z,59.80
2018-11-04T10:07:51.451Z,59.80
2018-11-04T10:09:53.262Z,59.80
2018-11-04T10:11:55.012Z,59.90
2018-11-04T10:13:56.812Z,59.90
2018-11-04T10:15:58.615Z,60.00
2018-11-04T10:18:00.425Z,60.40
2018-11-04T10:20:02.393Z,60.60
2018-11-04T10:22:03.937Z,60.70
2018-11-04T10:24:06.738Z,61.30
2018-11-04T10:26:08.560Z,60.70
2018-11-04T10:28:10.331Z,60.60
2018-11-04T10:30:12.229Z,60.60
2018-11-04T10:32:13.938Z,60.70
2018-11-04T10:34:15.712Z,61.00
2018-11-04T10:36:17.579Z,60.70
2018-11-04T10:38:19.342Z,60.70
2018-11-04T10:40:21.123Z,60.70
2018-11-04T10:42:22.978Z,60.70
2018-11-04T10:44:25.176Z,60.90
2018-11-04T10:46:26.979Z,60.60
2018-11-04T10:48:28.800Z,60.70
2018-11-04T10:50:30.594Z,60.70
2018-11-04T10:52:32.395Z,60.70
2018-11-04T10:54:34.315Z,60.30
2018-11-04T10:56:36.076Z,60.20
2018-11-04T10:58:37.890Z,60.00
2018-11-04T11:00:39.658Z,59.90
2018-11-04T11:02:41.490Z,59.60
2018-11-04T11:04:43.449Z,59.60
2018-11-04T11:06:45.540Z,59.70
2018-11-04T11:08:47.351Z,59.90
2018-11-04T11:10:49.232Z,60.00
2018-11-04T11:12:50.998Z,61.00
2018-11-04T11:14:52.767Z,58.20
2018-11-04T11:16:54.610Z,60.00
2018-11-04T11:18:56.432Z,63.10
2018-11-04T11:20:58.224Z,64.80
2018-11-04T11:23:00.185Z,66.60
2018-11-04T11:25:01.806Z,66.10
2018-11-04T11:27:03.641Z,63.70
2018-11-04T11:29:05.426Z,62.70
2018-11-04T11:31:07.342Z,61.70
2018-11-04T11:33:09.126Z,61.20
2018-11-04T11:35:10.912Z,60.80
2018-11-04T11:37:12.765Z,60.60
2018-11-04T11:39:14.534Z,60.50
2018-11-04T11:41:16.333Z,60.00
2018-11-04T11:43:18.148Z,60.00
2018-11-04T11:45:20.294Z,60.10
2018-11-04T11:47:22.172Z,60.00
2018-11-04T11:49:23.982Z,59.90
2018-11-04T11:51:25.804Z,59.90
2018-11-04T11:53:27.564Z,59.90
2018-11-04T11:55:29.340Z,59.80
2018-11-04T11:57:31.167Z,59.90
2018-11-04T11:59:32.959Z,60.70
2018-11-04T12:01:34.849Z,59.70
2018-11-04T12:03:36.607Z,59.80
2018-11-04T12:05:38.397Z,59.70
2018-11-04T12:07:40.208Z,59.70
2018-11-04T12:09:42.045Z,59.60
2018-11-04T12:11:43.863Z,59.70
2018-11-04T12:13:45.645Z,59.70
2018-11-04T12:15:47.463Z,59.80
2018-11-04T12:17:49.372Z,59.80
2018-11-04T12:19:51.085Z,59.90
2018-11-04T12:21:52.934Z,59.80
2018-11-04T12:23:54.867Z,59.90
2018-11-04T12:25:56.521Z,59.80
2018-11-04T12:27:58.335Z,59.70
2018-11-04T12:30:00.219Z,59.80
2018-11-04T12:32:02.063Z,59.70
2018-11-04T12:34:03.832Z,59.70
2018-11-04T12:36:05.618Z,59.70
2018-11-04T12:38:07.461Z,59.60
2018-11-04T12:40:09.256Z,59.50
2018-11-04T12:42:11.032Z,59.20
2018-11-04T12:44:12.853Z,59.30
2018-11-04T12:46:14.635Z,59.50
2018-11-04T12:48:16.635Z,59.70
2018-11-04T12:50:18.480Z,59.80
2018-11-04T12:52:20.345Z,60.00
2018-11-04T12:54:22.128Z,60.10
2018-11-04T12:56:23.892Z,60.30
2018-11-04T12:58:25.722Z,59.60
2018-11-04T13:00:27.514Z,59.80
2018-11-04T13:02:29.284Z,61.40
2018-11-04T13:04:31.099Z,62.80
2018-11-04T13:06:32.926Z,64.30
2018-11-04T13:08:34.708Z,65.50
2018-11-04T13:10:36.525Z,65.80
2018-11-04T13:12:38.344Z,65.60
2018-11-04T13:14:40.144Z,66.60
2018-11-04T13:16:41.972Z,66.90
2018-11-04T13:18:43.797Z,67.90
2018-11-04T13:20:45.568Z,68.10
2018-11-04T13:22:47.390Z,68.90
2018-11-04T13:24:49.177Z,69.70
2018-11-04T13:26:50.998Z,68.60
2018-11-04T13:28:52.806Z,68.00
2018-11-04T13:30:54.586Z,67.30
2018-11-04T13:32:56.392Z,66.80
2018-11-04T13:34:58.198Z,66.50
2018-11-04T13:36:59.968Z,66.30
2018-11-04T13:39:01.786Z,65.90
2018-11-04T13:41:03.604Z,66.00
2018-11-04T13:43:05.429Z,66.00
2018-11-04T13:45:07.234Z,65.90
2018-11-04T13:47:09.080Z,65.80
2018-11-04T13:49:10.962Z,65.60
2018-11-04T13:51:12.727Z,65.80
2018-11-04T13:53:14.558Z,65.50
2018-11-04T13:55:16.370Z,65.50
2018-11-04T13:57:18.184Z,65.40
2018-11-04T13:59:20.011Z,65.50
2018-11-04T14:01:21.837Z,66.60
2018-11-04T14:03:23.646Z,65.80
2018-11-04T14:05:25.423Z,65.90
2018-11-04T14:07:27.219Z,65.90
2018-11-04T14:09:29.026Z,65.90
2018-11-04T14:11:30.850Z,65.90
2018-11-04T14:13:32.781Z,65.80
2018-11-04T14:15:34.473Z,65.80
2018-11-04T14:17:36.286Z,65.80
2018-11-04T14:19:38.053Z,65.80
2018-11-04T14:21:39.837Z,65.80
2018-11-04T14:23:41.656Z,65.80
2018-11-04T14:25:43.462Z,65.70
2018-11-04T14:27:45.388Z,65.60
2018-11-04T14:29:47.172Z,65.60
2018-11-04T14:31:48.970Z,65.60
2018-11-04T14:33:50.780Z,65.60
2018-11-04T14:35:52.557Z,65.60
2018-11-04T14:37:54.331Z,65.60
2018-11-04T14:39:56.150Z,66.60
2018-11-04T14:41:57.962Z,65.50
2018-11-04T14:43:59.745Z,65.50
2018-11-04T14:46:01.585Z,65.60
2018-11-04T14:48:03.373Z,65.50
2018-11-04T14:50:05.190Z,65.60
2018-11-04T14:52:06.972Z,65.40
2018-11-04T14:54:08.819Z,65.40
2018-11-04T14:56:10.583Z,65.40
2018-11-04T14:58:12.370Z,65.40
2018-11-04T15:00:14.197Z,65.40
2018-11-04T15:02:15.965Z,65.40
2018-11-04T15:04:17.796Z,66.30
2018-11-04T15:06:19.612Z,65.40
2018-11-04T15:08:21.407Z,65.40
2018-11-04T15:10:23.230Z,65.40
2018-11-04T15:12:25.016Z,65.40
2018-11-04T15:14:26.794Z,65.40
2018-11-04T15:16:28.680Z,65.40
2018-11-04T15:18:30.523Z,65.30
2018-11-04T15:20:32.330Z,63.20
2018-11-04T15:22:34.161Z,63.80
2018-11-04T15:24:35.936Z,65.40
2018-11-04T15:26:37.887Z,67.10
2018-11-04T15:28:39.544Z,68.60
2018-11-04T15:30:41.368Z,68.80
2018-11-04T15:32:43.186Z,70.00
2018-11-04T15:34:45.092Z,70.40
2018-11-04T15:36:46.771Z,70.70
2018-11-04T15:38:48.604Z,70.60
2018-11-04T15:40:50.386Z,70.50
2018-11-04T15:42:52.249Z,71.30
2018-11-04T15:44:54.045Z,71.60
2018-11-04T15:46:55.838Z,70.50
2018-11-04T15:48:57.721Z,69.20
2018-11-04T15:50:59.463Z,68.10
2018-11-04T15:53:01.288Z,67.60
2018-11-04T15:55:03.090Z,66.70
2018-11-04T15:57:05.001Z,66.30
2018-11-04T15:59:06.764Z,65.90
2018-11-04T16:01:08.559Z,65.50
2018-11-04T16:03:10.363Z,65.20
2018-11-04T16:05:12.226Z,65.20
2018-11-04T16:07:13.955Z,65.00
2018-11-04T16:09:15.767Z,65.00
2018-11-04T16:11:17.545Z,62.50
2018-11-04T16:13:19.373Z,64.10
2018-11-04T16:15:21.178Z,66.20
2018-11-04T16:17:22.994Z,67.30
2018-11-04T16:19:24.857Z,68.90
2018-11-04T16:21:26.665Z,70.60
2018-11-04T16:23:28.485Z,69.90
2018-11-04T16:25:30.333Z,68.50
2018-11-04T16:27:32.079Z,67.70
2018-11-04T16:29:33.879Z,66.10
2018-11-04T16:31:35.682Z,65.70
2018-11-04T16:33:37.460Z,65.30
2018-11-04T16:35:39.282Z,65.40
2018-11-04T16:37:41.126Z,64.80
2018-11-04T16:39:42.892Z,64.30
2018-11-04T16:41:45.122Z,64.30
2018-11-04T16:43:46.954Z,63.70
2018-11-04T16:45:48.684Z,63.40
2018-11-04T16:47:50.480Z,63.00
2018-11-04T16:49:52.358Z,62.50
2018-11-04T16:51:54.087Z,62.30
2018-11-04T16:53:55.908Z,62.00
2018-11-04T16:55:57.760Z,61.90
2018-11-04T16:57:59.572Z,61.90
2018-11-04T17:00:01.401Z,61.70
2018-11-04T17:02:03.181Z,61.50
2018-11-04T17:04:05.023Z,61.40
2018-11-04T17:06:06.789Z,61.40
2018-11-04T17:08:08.604Z,61.20
2018-11-04T17:10:10.392Z,61.80
2018-11-04T17:12:12.175Z,61.10
2018-11-04T17:14:13.988Z,61.10
2018-11-04T17:16:15.763Z,61.10
2018-11-04T17:18:17.676Z,61.10
2018-11-04T17:20:19.403Z,61.60
2018-11-04T17:22:21.194Z,62.00
2018-11-04T17:24:23.057Z,61.00
2018-11-04T17:26:24.882Z,61.30
2018-11-04T17:28:26.662Z,61.10
2018-11-04T17:30:28.433Z,61.20
2018-11-04T17:32:30.245Z,61.40
2018-11-04T17:34:32.020Z,61.20
2018-11-04T17:36:33.931Z,61.30
2018-11-04T17:38:35.676Z,61.30
2018-11-04T17:40:37.557Z,61.30
2018-11-04T17:42:39.384Z,61.30
2018-11-04T17:44:41.266Z,57.90
2018-11-04T17:46:43.044Z,62.30
2018-11-04T17:48:44.895Z,62.70
2018-11-04T17:50:46.694Z,62.50
2018-11-04T17:52:48.473Z,61.70
2018-11-04T17:54:50.261Z,61.30
2018-11-04T17:56:52.097Z,61.10
2018-11-04T17:58:53.896Z,60.90
2018-11-04T18:00:55.743Z,60.70
2018-11-04T18:02:57.533Z,60.60
2018-11-04T18:04:59.383Z,60.50
2018-11-04T18:07:01.146Z,60.40
2018-11-04T18:09:02.993Z,61.80
2018-11-04T18:11:04.815Z,60.50
2018-11-04T18:13:06.686Z,60.90
2018-11-04T18:15:08.463Z,60.60
2018-11-04T18:17:10.306Z,60.50
2018-11-04T18:19:12.101Z,60.70
2018-11-04T18:21:13.964Z,60.40
2018-11-04T18:23:15.751Z,60.40
2018-11-04T18:25:17.582Z,60.70
2018-11-04T18:27:19.366Z,60.40
2018-11-04T18:29:21.141Z,60.40
2018-11-04T18:31:22.967Z,60.30
2018-11-04T18:33:24.747Z,60.40
2018-11-04T18:35:26.574Z,60.30
2018-11-04T18:37:28.362Z,60.50
2018-11-04T18:39:30.162Z,60.50
2018-11-04T18:41:31.944Z,60.30
2018-11-04T18:43:33.756Z,60.40
2018-11-04T18:45:35.558Z,60.40
2018-11-04T18:47:37.354Z,60.40
2018-11-04T18:49:39.483Z,60.40
2018-11-04T18:51:41.287Z,60.50
2018-11-04T18:53:43.137Z,60.50
2018-11-04T18:55:44.904Z,60.50
2018-11-04T18:57:46.793Z,60.50
2018-11-04T18:59:48.650Z,60.50
2018-11-04T19:01:50.431Z,60.50
2018-11-04T19:03:52.206Z,60.50
2018-11-04T19:05:54.032Z,60.60
2018-11-04T19:07:55.813Z,60.70
2018-11-04T19:09:57.602Z,60.70
2018-11-04T19:11:59.526Z,60.70
2018-11-04T19:14:01.218Z,60.90
2018-11-04T19:16:03.004Z,60.80
2018-11-04T19:18:04.829Z,60.80
2018-11-04T19:20:06.604Z,60.90
2018-11-04T19:22:08.379Z,60.90
2018-11-04T19:24:10.224Z,62.00
2018-11-04T19:26:12.054Z,61.00
2018-11-04T19:28:13.833Z,61.00
2018-11-04T19:30:15.663Z,60.90
2018-11-04T19:32:18.102Z,61.20
2018-11-04T19:34:19.895Z,61.30
2018-11-04T19:36:21.689Z,61.40
2018-11-04T19:38:23.484Z,61.30
2018-11-04T19:40:25.269Z,61.30
2018-11-04T19:42:27.127Z,62.10
2018-11-04T19:44:28.890Z,62.10
2018-11-04T19:46:30.717Z,61.80
2018-11-04T19:48:32.523Z,61.80
2018-11-04T19:50:34.316Z,61.80
2018-11-04T19:52:36.107Z,63.30
2018-11-04T19:54:37.973Z,62.20
2018-11-04T19:56:39.842Z,62.00
2018-11-04T19:58:41.616Z,62.20
2018-11-04T20:00:43.419Z,62.00
2018-11-04T20:02:45.214Z,62.20
2018-11-04T20:04:47.031Z,62.20
2018-11-04T20:06:48.805Z,62.20
2018-11-04T20:08:50.631Z,62.30
2018-11-04T20:10:52.418Z,62.30
2018-11-04T20:12:54.253Z,62.30
2018-11-04T20:14:55.996Z,62.30
2018-11-04T20:16:57.794Z,62.50
2018-11-04T20:18:59.608Z,62.20
2018-11-04T20:21:01.394Z,62.50
2018-11-04T20:23:03.257Z,62.10
2018-11-04T20:25:05.033Z,62.40
2018-11-04T20:27:06.831Z,62.30
2018-11-04T20:29:08.654Z,62.50
2018-11-04T20:31:10.479Z,62.80
2018-11-04T20:33:12.273Z,62.40
2018-11-04T20:35:14.083Z,62.60
2018-11-04T20:37:15.877Z,62.50
2018-11-04T20:39:17.692Z,62.70
2018-11-04T20:41:19.457Z,62.50
2018-11-04T20:43:21.296Z,62.60
2018-11-04T20:45:23.144Z,62.90
2018-11-04T20:47:24.894Z,62.50
2018-11-04T20:49:26.710Z,62.70
2018-11-04T20:51:28.559Z,62.70
2018-11-04T20:53:30.348Z,62.70
2018-11-04T20:55:32.157Z,62.70
2018-11-04T20:57:33.967Z,62.60
2018-11-04T20:59:35.774Z,62.70
2018-11-04T21:01:37.562Z,62.80
2018-11-04T21:03:39.412Z,62.90
2018-11-04T21:05:41.203Z,62.80
2018-11-04T21:07:43.022Z,62.80
2018-11-04T21:09:44.907Z,62.80
2018-11-04T21:11:46.653Z,63.80
2018-11-04T21:13:48.429Z,63.30
2018-11-04T21:15:50.271Z,63.00
2018-11-04T21:17:52.019Z,62.90
2018-11-04T21:19:53.807Z,63.00
2018-11-04T21:21:55.626Z,63.00
2018-11-04T21:23:57.440Z,63.10
2018-11-04T21:25:59.243Z,63.10
2018-11-04T21:28:01.142Z,63.00
2018-11-04T21:30:03.242Z,63.00
2018-11-04T21:32:05.156Z,63.20
2018-11-04T21:34:06.840Z,63.30
2018-11-04T21:36:08.677Z,63.60
2018-11-04T21:38:10.501Z,63.30
2018-11-04T21:40:12.299Z,63.30
2018-11-04T21:42:14.121Z,63.30
2018-11-04T21:44:15.968Z,63.30
2018-11-04T21:46:17.742Z,63.30
2018-11-04T21:48:19.567Z,63.30
2018-11-04T21:50:21.391Z,63.30
2018-11-04T21:52:23.180Z,63.30
2018-11-04T21:54:25.116Z,63.30
2018-11-04T21:56:26.928Z,63.30
2018-11-04T21:58:28.649Z,63.30
2018-11-04T22:00:30.438Z,63.30
2018-11-04T22:02:32.391Z,63.30
2018-11-04T22:04:34.066Z,63.40
2018-11-04T22:06:35.838Z,63.30
2018-11-04T22:08:37.673Z,63.50
2018-11-04T22:10:39.542Z,64.30
2018-11-04T22:12:41.279Z,63.50
2018-11-04T22:14:43.077Z,63.50
2018-11-04T22:16:44.859Z,63.60
2018-11-04T22:18:46.689Z,63.60
2018-11-04T22:20:48.503Z,63.50
2018-11-04T22:22:50.329Z,63.50
2018-11-04T22:24:52.159Z,63.60
2018-11-04T22:26:53.971Z,63.50
2018-11-04T22:28:55.846Z,63.50
2018-11-04T22:30:57.625Z,63.50
2018-11-04T22:32:59.425Z,63.50
2018-11-04T22:35:01.255Z,63.50
2018-11-04T22:37:03.078Z,63.50
2018-11-04T22:39:04.863Z,63.60
2018-11-04T22:41:06.684Z,63.50
2018-11-04T22:43:08.533Z,63.50
2018-11-04T22:45:10.315Z,63.50
2018-11-04T22:47:12.137Z,63.50
2018-11-04T22:49:13.927Z,63.50
2018-11-04T22:51:15.741Z,63.60
2018-11-04T22:53:17.571Z,63.50
2018-11-04T22:55:19.396Z,63.60
2018-11-04T22:57:21.229Z,63.70
2018-11-04T22:59:23.063Z,63.60
2018-11-04T23:01:24.902Z,63.80
2018-11-04T23:03:26.666Z,63.70
2018-11-04T23:05:28.487Z,63.70
2018-11-04T23:07:30.265Z,63.80
2018-11-04T23:09:32.074Z,63.80
2018-11-04T23:11:33.893Z,63.80
2018-11-04T23:13:35.674Z,63.80
2018-11-04T23:15:37.496Z,63.80
2018-11-04T23:17:39.281Z,63.80
2018-11-04T23:19:41.077Z,63.80
2018-11-04T23:21:42.856Z,63.80
2018-11-04T23:23:44.638Z,63.90
2018-11-04T23:25:46.474Z,63.90
2018-11-04T23:27:48.254Z,63.80
2018-11-04T23:29:50.560Z,63.90
2018-11-04T23:31:52.358Z,63.90
2018-11-04T23:33:54.168Z,64.00
2018-11-04T23:35:55.972Z,64.00
2018-11-04T23:37:57.780Z,64.00
2018-11-04T23:39:59.590Z,63.90
2018-11-04T23:42:01.420Z,63.90
2018-11-04T23:44:03.201Z,64.80
2018-11-04T23:46:05.012Z,63.90
2018-11-04T23:48:06.844Z,63.90
2018-11-04T23:50:08.623Z,63.90
2018-11-04T23:52:10.448Z,63.90
2018-11-04T23:54:12.252Z,64.50
2018-11-04T23:56:14.033Z,63.80
2018-11-04T23:58:15.829Z,64.00
